createdAt,value
2019-01-15T00:02:05.810Z,7.10
2019-01-15T00:04:36.580Z,8.77
2019-01-15T00:07:07.350Z,6.33
2019-01-15T00:09:38.101Z,8.00
2019-01-15T00:12:08.886Z,6.67
2019-01-15T00:14:39.695Z,7.77
2019-01-15T00:17:11.600Z,8.10
2019-01-15T00:19:43.433Z,13.03
2019-01-15T00:22:14.327Z,6.70
2019-01-15T00:24:46.070Z,5.03
2019-01-15T00:27:17.692Z,7.60
2019-01-15T00:29:48.531Z,9.77
2019-01-15T00:32:19.255Z,7.47
2019-01-15T00:34:50.139Z,11.27
2019-01-15T00:37:20.920Z,8.27
2019-01-15T00:39:51.671Z,9.17
2019-01-15T00:42:22.573Z,7.07
2019-01-15T00:44:53.416Z,5.77
2019-01-15T00:47:24.189Z,5.33
2019-01-15T00:49:55.014Z,12.53
2019-01-15T00:52:25.858Z,6.63
2019-01-15T00:54:57.610Z,7.80
2019-01-15T00:57:28.377Z,7.00
2019-01-15T00:59:59.138Z,11.03
2019-01-15T01:02:29.955Z,5.90
2019-01-15T01:05:00.790Z,10.40
2019-01-15T01:07:31.576Z,11.57
2019-01-15T01:10:02.430Z,5.97
2019-01-15T01:12:34.402Z,7.23
2019-01-15T01:15:06.552Z,11.30
2019-01-15T01:17:38.574Z,11.00
2019-01-15T01:20:11.473Z,11.50
2019-01-15T01:22:42.719Z,9.27
2019-01-15T01:25:14.160Z,14.63
2019-01-15T01:27:45.084Z,8.63
2019-01-15T01:30:21.302Z,7.30
2019-01-15T01:32:52.354Z,11.20
2019-01-15T01:35:23.186Z,9.33
2019-01-15T01:37:53.984Z,9.47
2019-01-15T01:40:24.743Z,5.33
2019-01-15T01:42:56.563Z,15.67
2019-01-15T01:45:27.315Z,12.70
2019-01-15T01:47:58.090Z,10.83
2019-01-15T01:50:28.859Z,11.57
2019-01-15T01:52:59.692Z,6.47
2019-01-15T01:55:30.531Z,8.57
2019-01-15T01:58:01.283Z,11.00
2019-01-15T02:00:32.053Z,13.80
2019-01-15T02:03:02.861Z,8.63
2019-01-15T02:05:33.624Z,9.47
2019-01-15T02:08:05.591Z,6.53
2019-01-15T02:10:36.443Z,10.67
2019-01-15T02:13:07.223Z,10.47
2019-01-15T02:15:38.045Z,11.83
2019-01-15T02:18:10.159Z,6.77
2019-01-15T02:20:40.930Z,8.07
2019-01-15T02:23:11.737Z,19.57
2019-01-15T02:25:42.535Z,7.20
2019-01-15T02:28:14.213Z,9.53
2019-01-15T02:30:45.404Z,11.27
2019-01-15T02:33:16.286Z,6.33
2019-01-15T02:35:47.102Z,10.93
2019-01-15T02:38:17.950Z,7.67
2019-01-15T02:40:48.710Z,10.93
2019-01-15T02:43:19.524Z,10.67
2019-01-15T02:45:50.390Z,12.97
2019-01-15T02:48:21.226Z,11.27
2019-01-15T02:50:51.974Z,11.70
2019-01-15T02:53:22.753Z,6.77
2019-01-15T02:55:53.480Z,9.77
2019-01-15T02:58:24.470Z,12.23
2019-01-15T03:00:55.227Z,8.30
2019-01-15T03:03:26.051Z,8.63
2019-01-15T03:05:56.799Z,8.33
2019-01-15T03:08:27.677Z,10.93
2019-01-15T03:11:00.201Z,13.07
2019-01-15T03:13:30.994Z,8.63
2019-01-15T03:16:01.724Z,17.23
2019-01-15T03:18:34.023Z,11.47
2019-01-15T03:21:04.778Z,8.33
2019-01-15T03:23:35.546Z,9.90
2019-01-15T03:26:06.295Z,9.87
2019-01-15T03:28:37.134Z,13.77
2019-01-15T03:31:07.933Z,9.13
2019-01-15T03:33:38.754Z,13.57
2019-01-15T03:36:09.489Z,13.63
2019-01-15T03:38:40.233Z,12.30
2019-01-15T03:41:11.009Z,10.53
2019-01-15T03:43:41.875Z,8.13
2019-01-15T03:46:12.623Z,11.03
2019-01-15T03:48:43.387Z,9.33
2019-01-15T03:51:14.292Z,8.33
2019-01-15T03:53:45.035Z,12.57
2019-01-15T03:56:15.886Z,9.87
2019-01-15T03:58:46.691Z,10.23
2019-01-15T04:01:17.438Z,12.47
2019-01-15T04:03:48.227Z,9.63
2019-01-15T04:06:19.045Z,10.93
2019-01-15T04:08:49.902Z,7.67
2019-01-15T04:11:20.639Z,10.80
2019-01-15T04:13:51.432Z,7.37
2019-01-15T04:16:22.194Z,12.30
2019-01-15T04:18:54.081Z,12.03
2019-01-15T04:21:24.920Z,10.70
2019-01-15T04:23:55.767Z,9.20
2019-01-15T04:26:26.538Z,10.17
2019-01-15T04:28:57.991Z,13.90
2019-01-15T04:31:28.735Z,9.37
2019-01-15T04:34:00.696Z,21.60
2019-01-15T04:36:31.467Z,12.17
2019-01-15T04:39:02.314Z,10.53
2019-01-15T04:41:33.358Z,14.10
2019-01-15T04:44:04.839Z,9.30
2019-01-15T04:46:35.689Z,7.37
2019-01-15T04:49:06.426Z,8.53
2019-01-15T04:51:37.175Z,10.20
2019-01-15T04:54:07.978Z,14.03
2019-01-15T04:56:39.029Z,8.80
2019-01-15T04:59:09.943Z,10.83
2019-01-15T05:01:40.757Z,10.17
2019-01-15T05:04:11.622Z,7.57
2019-01-15T05:06:42.378Z,12.17
2019-01-15T05:09:13.709Z,7.83
2019-01-15T05:11:44.659Z,14.57
2019-01-15T05:14:15.489Z,9.27
2019-01-15T05:16:46.248Z,10.80
2019-01-15T05:19:18.313Z,10.37
2019-01-15T05:21:49.101Z,11.40
2019-01-15T05:24:19.872Z,11.13
2019-01-15T05:26:50.719Z,12.53
2019-01-15T05:29:22.450Z,12.90
2019-01-15T05:31:54.445Z,11.73
2019-01-15T05:34:25.215Z,13.77
2019-01-15T05:36:56.067Z,15.17
2019-01-15T05:39:27.006Z,13.53
2019-01-15T05:41:57.782Z,17.50
2019-01-15T05:44:28.575Z,15.57
2019-01-15T05:46:59.348Z,15.37
2019-01-15T05:49:30.105Z,13.10
2019-01-15T05:52:00.919Z,16.60
2019-01-15T05:54:31.949Z,20.63
2019-01-15T05:57:02.727Z,13.70
2019-01-15T05:59:33.561Z,15.90
2019-01-15T06:02:04.528Z,16.67
2019-01-15T06:04:35.317Z,15.10
2019-01-15T06:07:06.876Z,21.00
2019-01-15T06:09:37.656Z,16.97
2019-01-15T06:12:08.492Z,22.57
2019-01-15T06:14:41.724Z,18.73
2019-01-15T06:17:12.516Z,17.10
2019-01-15T06:19:43.370Z,18.40
2019-01-15T06:22:14.182Z,19.07
2019-01-15T06:24:44.938Z,15.23
2019-01-15T06:27:15.727Z,18.03
2019-01-15T06:29:47.516Z,18.10
2019-01-15T06:32:18.262Z,18.83
2019-01-15T06:34:49.092Z,18.93
2019-01-15T06:37:19.854Z,17.83
2019-01-15T06:39:50.616Z,13.93
2019-01-15T06:42:21.345Z,19.20
2019-01-15T06:44:52.228Z,17.83
2019-01-15T06:47:24.472Z,14.77
2019-01-15T06:49:55.340Z,18.00
2019-01-15T06:52:26.094Z,18.50
2019-01-15T06:54:57.825Z,17.67
2019-01-15T06:57:28.623Z,18.60
2019-01-15T06:59:59.434Z,16.53
2019-01-15T07:02:30.250Z,19.33
2019-01-15T07:05:01.039Z,19.40
2019-01-15T07:07:31.802Z,18.47
2019-01-15T07:10:02.652Z,17.33
2019-01-15T07:12:33.462Z,16.73
2019-01-15T07:15:04.776Z,21.93
2019-01-15T07:17:35.635Z,16.37
2019-01-15T07:20:08.131Z,19.57
2019-01-15T07:22:38.876Z,18.50
2019-01-15T07:25:11.407Z,19.00
2019-01-15T07:27:42.321Z,21.93
2019-01-15T07:30:43.235Z,20.40
2019-01-15T07:33:14.092Z,20.97
2019-01-15T07:35:45.013Z,24.47
2019-01-15T07:38:15.962Z,22.10
2019-01-15T07:40:46.731Z,20.87
2019-01-15T07:43:18.618Z,23.40
2019-01-15T07:45:49.507Z,22.53
2019-01-15T07:48:20.265Z,24.47
2019-01-15T07:50:52.344Z,21.30
2019-01-15T07:53:23.178Z,26.60
2019-01-15T07:55:53.969Z,24.83
2019-01-15T07:58:25.726Z,23.93
2019-01-15T08:00:56.526Z,27.13
2019-01-15T08:03:28.794Z,25.93
2019-01-15T08:05:59.784Z,23.87
2019-01-15T08:08:30.609Z,26.20
2019-01-15T08:11:03.459Z,27.33
2019-01-15T08:13:34.342Z,25.70
2019-01-15T08:16:05.383Z,28.40
2019-01-15T08:18:36.160Z,28.57
2019-01-15T08:21:08.204Z,32.03
2019-01-15T08:23:39.132Z,26.73
2019-01-15T08:26:09.936Z,29.20
2019-01-15T08:28:40.736Z,26.97
2019-01-15T08:31:11.594Z,34.97
2019-01-15T08:33:42.492Z,29.27
2019-01-15T08:36:13.333Z,24.20
2019-01-15T08:38:44.117Z,23.57
2019-01-15T08:41:14.898Z,25.63
2019-01-15T08:43:45.754Z,23.50
2019-01-15T08:46:16.543Z,23.67
2019-01-15T08:48:47.318Z,23.43
2019-01-15T08:51:18.311Z,24.10
2019-01-15T08:53:50.535Z,27.63
2019-01-15T08:56:21.732Z,18.53
2019-01-15T08:58:52.630Z,24.50
2019-01-15T09:01:23.576Z,22.63
2019-01-15T09:03:54.330Z,19.97
2019-01-15T09:06:25.112Z,26.17
2019-01-15T09:08:55.884Z,20.33
2019-01-15T09:11:26.664Z,23.40
2019-01-15T09:13:58.408Z,20.63
2019-01-15T09:16:29.251Z,20.33
2019-01-15T09:19:00.033Z,24.03
2019-01-15T09:21:31.844Z,20.17
2019-01-15T09:24:02.679Z,25.83
2019-01-15T09:26:33.538Z,22.43
2019-01-15T09:29:04.403Z,16.37
2019-01-15T09:31:36.134Z,20.13
2019-01-15T09:34:07.015Z,21.50
2019-01-15T09:36:37.882Z,24.57
2019-01-15T09:39:09.644Z,22.67
2019-01-15T09:41:41.198Z,25.37
2019-01-15T09:44:11.959Z,25.83
2019-01-15T09:46:42.741Z,20.77
2019-01-15T09:49:13.512Z,21.80
2019-01-15T09:51:44.297Z,21.77
2019-01-15T09:54:15.329Z,24.80
2019-01-15T09:56:46.186Z,23.90
2019-01-15T09:59:16.958Z,23.60
2019-01-15T10:01:47.887Z,27.83
2019-01-15T10:04:18.720Z,21.27
2019-01-15T10:06:49.499Z,21.40
2019-01-15T10:09:20.282Z,19.13
2019-01-15T10:11:51.070Z,18.17
2019-01-15T10:14:21.891Z,23.43
2019-01-15T10:16:52.681Z,19.97
2019-01-15T10:19:23.479Z,18.07
2019-01-15T10:21:55.587Z,21.03
2019-01-15T10:24:26.431Z,16.20
2019-01-15T10:26:58.031Z,16.63
2019-01-15T10:29:29.415Z,14.90
2019-01-15T10:32:43.707Z,15.07
2019-01-15T10:36:01.338Z,21.37
2019-01-15T10:38:33.645Z,13.67
2019-01-15T10:41:05.170Z,16.17
2019-01-15T10:43:36.246Z,19.40
2019-01-15T10:46:07.286Z,17.97
2019-01-15T10:48:38.084Z,17.17
2019-01-15T10:51:08.877Z,18.97
2019-01-15T10:53:39.643Z,17.60
2019-01-15T10:56:10.463Z,19.23
2019-01-15T10:58:41.307Z,21.87
2019-01-15T11:01:12.224Z,20.43
2019-01-15T11:03:43.012Z,18.97
2019-01-15T11:06:13.844Z,20.43
2019-01-15T11:08:44.602Z,17.70
2019-01-15T11:11:16.502Z,21.97
2019-01-15T11:13:47.342Z,14.27
2019-01-15T11:16:18.254Z,16.80
2019-01-15T11:18:49.063Z,15.83
2019-01-15T11:21:19.847Z,16.90
2019-01-15T11:23:51.644Z,18.60
2019-01-15T11:26:22.512Z,16.33
2019-01-15T11:28:53.331Z,17.97
2019-01-15T11:31:24.116Z,17.17
2019-01-15T11:33:56.185Z,17.87
2019-01-15T11:36:27.056Z,18.23
2019-01-15T11:38:57.883Z,16.17
2019-01-15T11:41:28.719Z,20.67
2019-01-15T11:43:59.568Z,18.80
2019-01-15T11:46:30.327Z,19.97
2019-01-15T11:49:02.319Z,25.53
2019-01-15T11:51:33.102Z,23.63
2019-01-15T11:54:03.878Z,18.93
2019-01-15T11:56:34.691Z,18.27
2019-01-15T11:59:05.682Z,17.17
2019-01-15T12:01:49.260Z,20.33
2019-01-15T12:04:29.476Z,19.77
2019-01-15T12:07:18.089Z,19.67
2019-01-15T12:10:16.791Z,16.47
2019-01-15T12:13:12.312Z,21.93
2019-01-15T12:16:16.247Z,20.07
2019-01-15T12:19:18.190Z,23.10
2019-01-15T12:22:06.448Z,23.80
2019-01-15T12:24:56.346Z,23.60
2019-01-15T12:27:53.136Z,19.37
2019-01-15T12:30:36.858Z,22.70
2019-01-15T12:33:29.441Z,17.83
2019-01-15T12:36:22.543Z,15.20
2019-01-15T12:39:11.277Z,33.37
2019-01-15T12:42:16.434Z,19.27
2019-01-15T12:45:06.490Z,21.77
2019-01-15T12:47:52.646Z,17.43
2019-01-15T12:50:33.172Z,19.53
2019-01-15T12:53:23.703Z,17.37
2019-01-15T12:56:17.373Z,16.70
2019-01-15T12:59:19.048Z,20.67
2019-01-15T13:02:07.314Z,17.20
2019-01-15T13:05:03.134Z,23.47
2019-01-15T13:07:52.951Z,15.63
2019-01-15T13:10:45.535Z,14.60
2019-01-15T13:13:44.821Z,17.27
2019-01-15T13:16:29.898Z,14.53
2019-01-15T13:19:09.313Z,19.40
2019-01-15T13:21:57.916Z,17.37
2019-01-15T13:24:59.939Z,19.67
2019-01-15T13:27:41.105Z,25.67
2019-01-15T13:30:44.678Z,11.97
2019-01-15T13:33:37.214Z,18.80
2019-01-15T13:36:28.732Z,11.17
2019-01-15T13:39:17.393Z,18.37
2019-01-15T13:42:07.095Z,16.17
2019-01-15T13:44:55.832Z,12.93
2019-01-15T13:47:44.690Z,18.23
2019-01-15T13:50:33.293Z,10.47
2019-01-15T13:53:32.272Z,11.53
2019-01-15T13:56:14.768Z,18.20
2019-01-15T13:59:02.982Z,16.00
2019-01-15T14:01:51.643Z,15.07
2019-01-15T14:04:40.250Z,12.73
2019-01-15T14:07:39.156Z,12.90
2019-01-15T14:10:42.921Z,8.60
2019-01-15T14:13:44.782Z,9.33
2019-01-15T14:16:42.425Z,9.43
2019-01-15T14:19:31.008Z,14.23
2019-01-15T14:22:32.551Z,9.80
2019-01-15T14:25:25.059Z,16.73
2019-01-15T14:28:08.163Z,12.60
2019-01-15T14:31:06.471Z,19.07
2019-01-15T14:34:09.283Z,12.60
2019-01-15T14:36:59.233Z,14.90
2019-01-15T14:40:05.400Z,25.27
2019-01-15T14:42:58.602Z,16.87
2019-01-15T14:45:48.635Z,11.50
2019-01-15T14:48:35.537Z,9.13
2019-01-15T14:51:17.335Z,14.43
2019-01-15T14:54:13.314Z,11.47
2019-01-15T14:57:03.131Z,10.93
2019-01-15T14:59:56.223Z,6.73
2019-01-15T15:02:53.440Z,8.37
2019-01-15T15:05:31.719Z,12.87
2019-01-15T15:08:16.804Z,8.03
2019-01-15T15:11:21.650Z,8.60
2019-01-15T15:14:26.390Z,9.67
2019-01-15T15:17:16.146Z,7.87
2019-01-15T15:20:13.093Z,7.63
2019-01-15T15:23:21.193Z,6.07
2019-01-15T15:26:11.100Z,8.93
2019-01-15T15:28:59.614Z,7.30
2019-01-15T15:31:52.385Z,11.57
2019-01-15T15:34:36.654Z,12.03
2019-01-15T15:37:20.548Z,8.90
2019-01-15T15:40:22.517Z,17.57
2019-01-15T15:43:13.709Z,10.17
2019-01-15T15:45:59.321Z,13.07
2019-01-15T15:48:52.222Z,13.03
2019-01-15T15:51:40.996Z,9.23
2019-01-15T15:54:39.873Z,9.90
2019-01-15T15:57:26.825Z,22.50
2019-01-15T16:00:20.095Z,16.00
2019-01-15T16:03:01.248Z,15.13
2019-01-15T16:05:49.987Z,14.77
2019-01-15T16:08:45.757Z,12.90
2019-01-15T16:11:44.603Z,8.20
2019-01-15T16:14:29.598Z,9.13
2019-01-15T16:17:13.378Z,11.40
2019-01-15T16:19:59.227Z,11.37
2019-01-15T16:22:49.208Z,9.53
2019-01-15T16:25:54.071Z,11.27
2019-01-15T16:28:50.072Z,10.77
2019-01-15T16:31:38.829Z,10.67
2019-01-15T16:34:24.436Z,13.43
2019-01-15T16:37:09.191Z,10.60
2019-01-15T16:39:52.823Z,8.73
2019-01-15T16:42:41.853Z,9.97
2019-01-15T16:45:31.574Z,17.87
2019-01-15T16:48:20.138Z,18.80
2019-01-15T16:51:00.338Z,36.27
2019-01-15T16:53:56.292Z,14.93
2019-01-15T16:56:48.059Z,11.00
2019-01-15T16:59:36.508Z,9.23
2019-01-15T17:02:25.151Z,8.37
2019-01-15T17:05:14.931Z,6.77
2019-01-15T17:08:03.665Z,9.67
2019-01-15T17:10:59.574Z,8.83
2019-01-15T17:13:49.302Z,13.03
2019-01-15T17:16:41.355Z,9.57
2019-01-15T17:19:37.277Z,6.30
2019-01-15T17:22:26.157Z,10.93
2019-01-15T17:25:14.851Z,9.13
2019-01-15T17:28:04.721Z,5.93
2019-01-15T17:30:54.548Z,24.87
2019-01-15T17:33:53.482Z,23.60
2019-01-15T17:36:37.104Z,13.37
2019-01-15T17:39:34.822Z,10.03
2019-01-15T17:42:24.848Z,8.27
2019-01-15T17:45:15.146Z,12.17
2019-01-15T17:48:04.908Z,9.73
2019-01-15T17:50:53.156Z,7.23
2019-01-15T17:53:45.980Z,9.30
2019-01-15T17:56:35.839Z,10.27
2019-01-15T17:59:24.330Z,13.33
2019-01-15T18:02:16.968Z,8.17
2019-01-15T18:05:24.918Z,6.90
2019-01-15T18:08:33.125Z,9.53
2019-01-15T18:11:23.109Z,7.83
2019-01-15T18:14:11.526Z,12.67
2019-01-15T18:17:02.197Z,11.00
2019-01-15T18:19:50.974Z,12.23
2019-01-15T18:22:44.145Z,11.83
2019-01-15T18:25:43.265Z,10.23
2019-01-15T18:28:31.089Z,8.47
2019-01-15T18:31:29.711Z,10.13
2019-01-15T18:34:34.919Z,8.40
2019-01-15T18:37:36.834Z,8.63
2019-01-15T18:40:37.180Z,10.67
2019-01-15T18:43:25.513Z,10.53
2019-01-15T18:46:12.572Z,11.47
2019-01-15T18:48:58.776Z,9.83
2019-01-15T18:51:47.470Z,10.40
2019-01-15T18:54:50.958Z,8.00
2019-01-15T18:57:48.677Z,9.73
2019-01-15T19:00:47.357Z,9.30
2019-01-15T19:03:38.774Z,10.17
2019-01-15T19:06:34.607Z,10.87
2019-01-15T19:09:25.839Z,6.97
2019-01-15T19:12:24.441Z,9.97
2019-01-15T19:15:09.105Z,11.80
2019-01-15T19:17:58.009Z,10.57
2019-01-15T19:20:50.872Z,10.53
2019-01-15T19:23:46.694Z,10.20
2019-01-15T19:26:30.525Z,10.00
2019-01-15T19:29:24.063Z,9.37
2019-01-15T19:32:12.680Z,10.23
2019-01-15T19:38:18.146Z,11.53
2019-01-15T19:41:18.982Z,9.57
2019-01-15T19:44:07.387Z,7.83
2019-01-15T19:46:55.839Z,10.10
2019-01-15T19:49:48.522Z,8.90
2019-01-15T19:52:44.111Z,9.87
2019-01-15T19:55:32.878Z,9.97
2019-01-15T19:58:21.327Z,10.77
2019-01-15T20:01:04.111Z,10.87
2019-01-15T20:03:56.712Z,9.93
2019-01-15T20:06:45.361Z,7.17
2019-01-15T20:09:33.957Z,8.97
2019-01-15T20:12:17.672Z,8.37
2019-01-15T20:15:10.506Z,12.50
2019-01-15T20:18:15.913Z,13.50
2019-01-15T20:20:56.174Z,7.50
2019-01-15T20:23:44.843Z,13.20
2019-01-15T20:26:37.956Z,9.90
2019-01-15T20:29:43.737Z,8.97
2019-01-15T20:32:33.567Z,11.97
2019-01-15T20:35:38.752Z,10.53
2019-01-15T20:38:27.677Z,9.83
2019-01-15T20:41:29.871Z,8.33
2019-01-15T20:44:21.204Z,7.63
2019-01-15T20:47:25.491Z,9.47
2019-01-15T20:50:11.692Z,8.80
2019-01-15T20:53:07.526Z,15.70
2019-01-15T20:56:10.294Z,13.03
2019-01-15T20:59:02.931Z,9.90
2019-01-15T21:01:47.151Z,12.53
2019-01-15T21:04:55.069Z,9.43
2019-01-15T21:07:43.380Z,13.23
2019-01-15T21:10:32.061Z,9.43
2019-01-15T21:13:40.047Z,12.93
2019-01-15T21:16:38.810Z,11.23
2019-01-15T21:19:44.849Z,13.27
2019-01-15T21:22:43.640Z,12.73
2019-01-15T21:25:52.027Z,10.90
2019-01-15T21:28:41.909Z,13.93
2019-01-15T21:31:23.686Z,19.37
2019-01-15T21:34:19.307Z,14.00
2019-01-15T21:37:24.245Z,18.73
2019-01-15T21:40:06.727Z,17.33
2019-01-15T21:43:15.001Z,10.60
2019-01-15T21:46:03.645Z,19.70
2019-01-15T21:48:51.474Z,15.37
2019-01-15T21:51:44.261Z,14.10
2019-01-15T21:54:34.798Z,34.67
2019-01-15T21:57:22.063Z,18.10
2019-01-15T22:00:06.356Z,11.10
2019-01-15T22:02:56.166Z,10.30
2019-01-15T22:06:04.184Z,10.80
2019-01-15T22:08:47.600Z,13.77
2019-01-15T22:11:40.355Z,11.40
2019-01-15T22:14:36.188Z,9.27
2019-01-15T22:17:31.164Z,11.97
2019-01-15T22:20:26.812Z,11.20
2019-01-15T22:23:22.929Z,14.53
2019-01-15T22:26:11.641Z,9.03
2019-01-15T22:28:55.869Z,8.37
2019-01-15T22:31:47.466Z,8.33
2019-01-15T22:34:40.358Z,10.20
2019-01-15T22:37:20.883Z,7.87
2019-01-15T22:40:13.505Z,8.30
2019-01-15T22:43:10.134Z,8.43
2019-01-15T22:46:06.118Z,10.60
2019-01-15T22:48:59.190Z,11.57
2019-01-15T22:51:47.481Z,11.43
2019-01-15T22:54:36.319Z,12.30
2019-01-15T22:57:27.336Z,9.63
2019-01-15T23:00:20.452Z,9.65
2019-01-15T23:03:21.896Z,9.57
2019-01-15T23:06:17.603Z,9.90
2019-01-15T23:09:05.976Z,12.40
2019-01-15T23:11:50.970Z,11.63
2019-01-15T23:14:36.770Z,10.37
2019-01-15T23:17:23.163Z,11.60
2019-01-15T23:20:13.135Z,12.53
2019-01-15T23:23:09.027Z,12.47
2019-01-15T23:25:56.968Z,12.37
2019-01-15T23:28:45.717Z,16.27
2019-01-15T23:31:33.420Z,15.90
2019-01-15T23:34:29.761Z,10.73
2019-01-15T23:37:25.377Z,11.30
2019-01-15T23:40:13.932Z,13.33
2019-01-15T23:43:12.934Z,11.43
2019-01-15T23:46:01.507Z,14.60
2019-01-15T23:48:46.160Z,13.07
2019-01-15T23:51:35.991Z,12.50
2019-01-15T23:54:24.591Z,12.97
2019-01-15T23:57:21.432Z,15.63
